createdAt,value
2019-03-24T00:03:30.421Z,50.67
2019-03-24T00:08:22.869Z,49.37
2019-03-24T00:13:15.714Z,48.13
2019-03-24T00:18:08.331Z,49.57
2019-03-24T00:23:01.247Z,47.90
2019-03-24T00:27:53.445Z,47.47
2019-03-24T00:32:46.156Z,45.93
2019-03-24T00:37:39.260Z,47.93
2019-03-24T00:42:31.566Z,48.07
2019-03-24T00:47:24.265Z,49.03
2019-03-24T00:52:16.632Z,56.73
2019-03-24T00:57:09.505Z,67.90
2019-03-24T01:02:01.882Z,51.23
2019-03-24T01:06:54.637Z,50.57
2019-03-24T01:11:47.209Z,54.50
2019-03-24T01:16:39.846Z,66.33
2019-03-24T01:21:32.634Z,58.00
2019-03-24T01:26:25.315Z,61.83
2019-03-24T01:31:17.908Z,54.23
2019-03-24T01:36:10.601Z,47.20
2019-03-24T01:41:03.298Z,47.23
2019-03-24T01:45:58.833Z,50.67
2019-03-24T01:50:49.749Z,46.23
2019-03-24T01:55:42.511Z,53.27
2019-03-24T02:00:35.000Z,45.77
2019-03-24T02:05:27.693Z,48.13
2019-03-24T02:10:20.369Z,45.77
2019-03-24T02:15:13.078Z,50.63
2019-03-24T02:20:06.757Z,49.13
2019-03-24T02:24:59.279Z,57.40
2019-03-24T02:29:51.932Z,46.50
2019-03-24T02:34:44.581Z,43.93
2019-03-24T02:39:37.099Z,42.97
2019-03-24T02:44:29.535Z,48.23
2019-03-24T02:49:22.415Z,44.30
2019-03-24T02:54:14.882Z,44.03
2019-03-24T02:59:07.409Z,43.27
2019-03-24T03:04:00.136Z,43.73
2019-03-24T03:08:52.814Z,43.07
2019-03-24T03:13:45.254Z,44.57
2019-03-24T03:18:38.105Z,44.40
2019-03-24T03:23:31.031Z,48.60
2019-03-24T03:28:23.452Z,43.03
2019-03-24T03:33:15.846Z,43.37
2019-03-24T03:38:08.302Z,47.83
2019-03-24T03:43:00.777Z,47.47
2019-03-24T03:47:53.414Z,43.43
2019-03-24T03:52:46.053Z,43.57
2019-03-24T03:57:38.883Z,45.10
2019-03-24T04:02:31.279Z,46.57
2019-03-24T04:07:24.040Z,44.10
2019-03-24T04:12:16.823Z,49.53
2019-03-24T04:17:09.937Z,44.83
2019-03-24T04:22:02.253Z,48.13
2019-03-24T04:26:54.607Z,49.00
2019-03-24T04:31:47.058Z,52.27
2019-03-24T04:36:39.942Z,55.00
2019-03-24T04:41:32.592Z,51.07
2019-03-24T04:46:24.982Z,43.17
2019-03-24T04:51:17.429Z,42.37
2019-03-24T04:56:10.067Z,43.50
2019-03-24T05:01:02.467Z,38.07
2019-03-24T05:05:55.441Z,39.30
2019-03-24T05:10:48.043Z,40.90
2019-03-24T05:15:40.646Z,41.33
2019-03-24T05:20:33.412Z,42.37
2019-03-24T05:25:25.979Z,40.03
2019-03-24T05:30:18.739Z,40.40
2019-03-24T05:35:11.045Z,39.30
2019-03-24T05:40:04.562Z,41.30
2019-03-24T05:44:57.116Z,39.30
2019-03-24T05:49:50.830Z,41.03
2019-03-24T05:54:43.422Z,38.17
2019-03-24T05:59:35.884Z,40.37
2019-03-24T06:04:29.317Z,42.33
2019-03-24T06:09:21.429Z,39.60
2019-03-24T06:14:14.221Z,40.03
2019-03-24T06:19:06.749Z,39.63
2019-03-24T06:23:59.374Z,40.30
2019-03-24T06:28:51.981Z,38.90
2019-03-24T06:33:48.230Z,38.43
2019-03-24T06:38:40.362Z,51.00
2019-03-24T06:43:32.737Z,45.77
2019-03-24T06:48:25.539Z,66.43
2019-03-24T06:53:17.837Z,45.60
2019-03-24T06:58:10.300Z,46.57
2019-03-24T07:03:03.020Z,45.63
2019-03-24T07:07:55.679Z,41.47
2019-03-24T07:12:48.240Z,48.07
2019-03-24T07:17:40.951Z,38.13
2019-03-24T07:22:33.554Z,39.57
2019-03-24T07:27:26.007Z,40.27
2019-03-24T07:32:18.721Z,40.87
2019-03-24T07:37:11.333Z,39.70
2019-03-24T07:42:05.529Z,40.47
2019-03-24T07:46:57.392Z,42.37
2019-03-24T07:51:49.990Z,41.67
2019-03-24T07:56:42.357Z,41.58
2019-03-24T08:01:34.924Z,41.45
2019-03-24T08:06:27.372Z,40.65
2019-03-24T08:11:19.718Z,42.53
2019-03-24T08:16:12.485Z,40.88
2019-03-24T08:21:05.465Z,41.45
2019-03-24T08:25:58.183Z,48.73
2019-03-24T08:30:50.898Z,37.08
2019-03-24T08:35:43.618Z,37.00
2019-03-24T08:40:36.398Z,38.70
2019-03-24T08:45:30.439Z,35.63
2019-03-24T08:50:22.807Z,33.18
2019-03-24T08:55:15.656Z,32.48
2019-03-24T09:00:08.333Z,33.08
2019-03-24T09:05:00.738Z,33.95
2019-03-24T09:09:53.201Z,33.65
2019-03-24T09:14:45.638Z,33.73
2019-03-24T09:19:38.358Z,35.05
2019-03-24T09:24:30.922Z,35.08
2019-03-24T09:29:23.260Z,33.35
2019-03-24T09:34:15.873Z,34.58
2019-03-24T09:39:08.835Z,33.90
2019-03-24T09:44:01.322Z,35.05
2019-03-24T09:49:02.630Z,36.68
2019-03-24T09:53:48.037Z,34.98
2019-03-24T09:58:40.481Z,35.48
2019-03-24T10:03:32.982Z,34.18
2019-03-24T10:08:25.470Z,35.58
2019-03-24T10:13:18.173Z,35.98
2019-03-24T10:18:10.767Z,37.58
2019-03-24T10:23:03.330Z,35.40
2019-03-24T10:27:55.729Z,34.15
2019-03-24T10:32:48.120Z,34.63
2019-03-24T10:37:43.417Z,34.20
2019-03-24T10:42:37.497Z,32.38
2019-03-24T10:47:29.894Z,34.13
2019-03-24T10:52:22.360Z,34.10
2019-03-24T10:57:17.774Z,35.52
2019-03-24T11:02:15.923Z,34.92
2019-03-24T11:07:28.590Z,34.90
2019-03-24T11:12:23.204Z,36.58
2019-03-24T11:17:15.753Z,38.33
2019-03-24T11:22:08.429Z,37.40
2019-03-24T11:27:00.710Z,39.78
2019-03-24T11:31:53.152Z,37.95
2019-03-24T11:36:46.258Z,39.73
2019-03-24T11:41:38.703Z,41.90
2019-03-24T11:46:31.346Z,38.30
2019-03-24T11:51:24.132Z,38.15
2019-03-24T11:56:16.644Z,39.30
2019-03-24T12:01:09.441Z,38.78
2019-03-24T12:06:01.942Z,39.60
2019-03-24T12:10:54.662Z,35.92
2019-03-24T12:15:47.523Z,35.78
2019-03-24T12:20:40.238Z,34.40
2019-03-24T12:25:32.562Z,36.48
2019-03-24T12:30:25.284Z,35.88
2019-03-24T12:35:17.453Z,37.75
2019-03-24T12:40:10.708Z,38.73
2019-03-24T12:45:03.059Z,37.40
2019-03-24T12:49:55.692Z,35.40
2019-03-24T12:54:48.242Z,35.30
2019-03-24T12:59:40.785Z,35.63
2019-03-24T13:04:33.428Z,35.52
2019-03-24T13:09:25.804Z,36.80
2019-03-24T13:14:18.358Z,37.13
2019-03-24T13:19:10.890Z,35.83
2019-03-24T13:24:03.507Z,37.23
2019-03-24T13:28:56.103Z,35.90
2019-03-24T13:33:48.642Z,34.95
2019-03-24T13:38:41.353Z,34.00
2019-03-24T13:43:34.104Z,35.25
2019-03-24T13:48:26.590Z,34.00
2019-03-24T13:53:19.285Z,32.42
2019-03-24T13:58:12.328Z,31.62
2019-03-24T14:03:05.085Z,31.97
2019-03-24T14:07:57.802Z,30.50
2019-03-24T14:12:50.263Z,29.57
2019-03-24T14:17:43.061Z,27.82
2019-03-24T14:22:35.634Z,27.07
2019-03-24T14:27:28.089Z,28.00
2019-03-24T14:32:20.534Z,27.67
2019-03-24T14:37:13.474Z,28.05
2019-03-24T14:42:05.979Z,27.62
2019-03-24T14:46:58.421Z,25.95
2019-03-24T14:51:51.164Z,26.80
2019-03-24T14:56:43.681Z,25.62
2019-03-24T15:01:36.146Z,28.52
2019-03-24T15:06:28.594Z,25.82
2019-03-24T15:11:21.484Z,28.02
2019-03-24T15:16:14.181Z,28.75
2019-03-24T15:21:06.560Z,29.52
2019-03-24T15:25:59.058Z,31.00
2019-03-24T15:30:52.112Z,30.70
2019-03-24T15:35:44.728Z,30.68
2019-03-24T15:40:37.197Z,30.37
2019-03-24T15:45:29.830Z,31.02
2019-03-24T15:50:22.745Z,29.40
2019-03-24T15:55:15.177Z,26.15
2019-03-24T16:00:10.908Z,24.37
2019-03-24T16:05:03.519Z,21.77
2019-03-24T16:09:56.251Z,20.85
2019-03-24T16:14:48.624Z,20.60
2019-03-24T16:19:41.679Z,23.65
2019-03-24T16:24:34.909Z,20.23
2019-03-24T16:29:28.103Z,22.32
2019-03-24T16:34:21.387Z,21.30
2019-03-24T16:39:14.285Z,19.98
2019-03-24T16:44:06.983Z,19.42
2019-03-24T16:48:59.918Z,18.57
2019-03-24T16:54:12.041Z,19.32
2019-03-24T16:59:04.922Z,18.62
2019-03-24T17:03:57.666Z,18.35
2019-03-24T17:08:50.589Z,16.75
2019-03-24T17:13:43.050Z,16.93
2019-03-24T17:18:35.709Z,15.90
2019-03-24T17:23:28.643Z,15.65
2019-03-24T17:28:21.451Z,15.13
2019-03-24T17:33:14.290Z,15.32
2019-03-24T17:38:07.141Z,15.40
2019-03-24T17:42:59.781Z,14.85
2019-03-24T17:47:52.632Z,16.37
2019-03-24T17:52:45.700Z,16.97
2019-03-24T17:57:38.665Z,25.45
2019-03-24T18:02:31.513Z,28.98
2019-03-24T18:07:24.373Z,31.95
2019-03-24T18:12:17.133Z,42.33
2019-03-24T18:17:09.754Z,33.23
2019-03-24T18:22:11.234Z,34.45
2019-03-24T18:26:58.209Z,19.17
2019-03-24T18:31:50.865Z,26.42
2019-03-24T18:36:43.300Z,20.25
2019-03-24T18:41:36.042Z,15.45
2019-03-24T18:46:28.621Z,13.38
2019-03-24T18:51:21.275Z,14.95
2019-03-24T18:56:13.919Z,15.30
2019-03-24T19:01:06.595Z,14.83
2019-03-24T19:05:58.993Z,13.40
2019-03-24T19:10:51.364Z,14.10
2019-03-24T19:15:43.630Z,13.80
2019-03-24T19:20:36.137Z,13.70
2019-03-24T19:25:28.247Z,13.50
2019-03-24T19:30:23.882Z,18.30
2019-03-24T19:35:16.429Z,23.27
2019-03-24T19:40:15.037Z,27.95
2019-03-24T19:45:07.725Z,23.35
2019-03-24T19:50:00.377Z,15.23
2019-03-24T19:54:52.916Z,13.90
2019-03-24T19:59:45.690Z,14.23
2019-03-24T20:04:38.068Z,14.10
2019-03-24T20:09:30.482Z,15.63
2019-03-24T20:14:24.038Z,15.60
2019-03-24T20:19:16.570Z,15.27
2019-03-24T20:24:09.162Z,15.80
2019-03-24T20:29:01.849Z,15.43
2019-03-24T20:33:54.466Z,13.20
2019-03-24T20:38:47.261Z,12.73
2019-03-24T20:43:39.920Z,14.67
2019-03-24T20:48:32.221Z,16.40
2019-03-24T20:53:24.565Z,14.77
2019-03-24T20:58:16.960Z,16.67
2019-03-24T21:03:09.592Z,15.37
2019-03-24T21:08:02.110Z,16.07
2019-03-24T21:12:54.689Z,14.70
2019-03-24T21:17:47.426Z,12.37
2019-03-24T21:22:39.916Z,14.10
2019-03-24T21:27:32.476Z,20.20
2019-03-24T21:32:25.384Z,15.60
2019-03-24T21:37:18.176Z,19.67
2019-03-24T21:42:11.621Z,20.03
2019-03-24T21:47:23.703Z,15.03
2019-03-24T21:52:15.735Z,17.60
2019-03-24T21:57:08.409Z,15.77
2019-03-24T22:02:00.756Z,15.43
2019-03-24T22:06:53.148Z,17.17
2019-03-24T22:11:45.941Z,15.43
2019-03-24T22:16:38.461Z,17.50
2019-03-24T22:21:31.169Z,16.33
2019-03-24T22:26:23.891Z,16.93
2019-03-24T22:31:16.384Z,14.07
2019-03-24T22:36:09.064Z,16.07
2019-03-24T22:41:01.748Z,14.67
2019-03-24T22:45:54.733Z,14.43
2019-03-24T22:50:47.552Z,12.93
2019-03-24T22:55:40.380Z,12.97
2019-03-24T23:00:46.757Z,17.83
2019-03-24T23:05:39.241Z,15.23
2019-03-24T23:10:32.449Z,14.93
2019-03-24T23:15:24.997Z,20.03
2019-03-24T23:20:17.346Z,14.30
2019-03-24T23:25:10.070Z,18.37
2019-03-24T23:30:02.260Z,16.83
2019-03-24T23:34:54.715Z,19.30
2019-03-24T23:39:47.090Z,23.00
2019-03-24T23:44:39.766Z,12.73
2019-03-24T23:49:32.447Z,21.73
2019-03-24T23:54:27.195Z,15.83
2019-03-24T23:59:18.941Z,26.20
